sensor_id;sensor_type;location;lat;lon;timestamp;pressure;altitude;pressure_sealevel;temperature
67966;BMP280;54749;47.850;9.002;2023-06-10T00:00:44;95490.53;;;17.20
67966;BMP280;54749;47.850;9.002;2023-06-10T00:03:31;95487.31;;;17.26
67966;BMP280;54749;47.850;9.002;2023-06-10T00:05:59;95485.53;;;17.35
67966;BMP280;54749;47.850;9.002;2023-06-10T00:08:27;95484.72;;;17.34
67966;BMP280;54749;47.850;9.002;2023-06-10T00:10:55;95483.00;;;17.27
67966;BMP280;54749;47.850;9.002;2023-06-10T00:13:24;95478.41;;;17.22
67966;BMP280;54749;47.850;9.002;2023-06-10T00:15:50;95491.16;;;17.22
67966;BMP280;54749;47.850;9.002;2023-06-10T00:18:18;95485.75;;;17.18
67966;BMP280;54749;47.850;9.002;2023-06-10T00:20:45;95490.88;;;17.18
67966;BMP280;54749;47.850;9.002;2023-06-10T00:23:12;95491.81;;;17.17
67966;BMP280;54749;47.850;9.002;2023-06-10T00:25:40;95482.56;;;17.16
67966;BMP280;54749;47.850;9.002;2023-06-10T00:28:07;95488.16;;;17.11
67966;BMP280;54749;47.850;9.002;2023-06-10T00:30:34;95486.75;;;17.09
67966;BMP280;54749;47.850;9.002;2023-06-10T00:33:02;95488.34;;;17.02
67966;BMP280;54749;47.850;9.002;2023-06-10T00:35:29;95489.19;;;16.95
67966;BMP280;54749;47.850;9.002;2023-06-10T00:37:56;95488.72;;;16.83
67966;BMP280;54749;47.850;9.002;2023-06-10T00:40:23;95485.88;;;16.71
67966;BMP280;54749;47.850;9.002;2023-06-10T00:42:51;95482.50;;;16.63
67966;BMP280;54749;47.850;9.002;2023-06-10T00:45:20;95483.97;;;16.65
67966;BMP280;54749;47.850;9.002;2023-06-10T00:47:48;95481.41;;;16.65
67966;BMP280;54749;47.850;9.002;2023-06-10T00:50:15;95491.00;;;16.48
67966;BMP280;54749;47.850;9.002;2023-06-10T00:52:44;95487.66;;;16.31
67966;BMP280;54749;47.850;9.002;2023-06-10T00:55:13;95482.06;;;16.20
67966;BMP280;54749;47.850;9.002;2023-06-10T00:57:41;95472.06;;;16.19
67966;BMP280;54749;47.850;9.002;2023-06-10T01:00:11;95476.66;;;16.31
67966;BMP280;54749;47.850;9.002;2023-06-10T01:02:39;95472.50;;;16.38
67966;BMP280;54749;47.850;9.002;2023-06-10T01:05:07;95479.50;;;16.51
67966;BMP280;54749;47.850;9.002;2023-06-10T01:07:38;95473.00;;;16.49
67966;BMP280;54749;47.850;9.002;2023-06-10T01:10:41;95473.28;;;16.54
67966;BMP280;54749;47.850;9.002;2023-06-10T01:13:11;95467.09;;;16.48
67966;BMP280;54749;47.850;9.002;2023-06-10T01:15:38;95469.00;;;16.39
67966;BMP280;54749;47.850;9.002;2023-06-10T01:18:07;95471.56;;;16.31
67966;BMP280;54749;47.850;9.002;2023-06-10T01:20:37;95471.09;;;16.28
67966;BMP280;54749;47.850;9.002;2023-06-10T01:23:07;95470.13;;;16.21
67966;BMP280;54749;47.850;9.002;2023-06-10T01:25:42;95472.53;;;16.22
67966;BMP280;54749;47.850;9.002;2023-06-10T01:28:19;95477.16;;;16.27
67966;BMP280;54749;47.850;9.002;2023-06-10T01:33:31;95468.84;;;16.17
67966;BMP280;54749;47.850;9.002;2023-06-10T01:36:01;95473.78;;;16.11
67966;BMP280;54749;47.850;9.002;2023-06-10T01:38:33;95464.06;;;15.98
67966;BMP280;54749;47.850;9.002;2023-06-10T01:41:03;95470.28;;;15.96
67966;BMP280;54749;47.850;9.002;2023-06-10T01:43:33;95471.38;;;15.94
67966;BMP280;54749;47.850;9.002;2023-06-10T01:46:01;95485.38;;;15.82
67966;BMP280;54749;47.850;9.002;2023-06-10T01:48:29;95479.00;;;15.86
67966;BMP280;54749;47.850;9.002;2023-06-10T01:50:56;95479.16;;;15.84
67966;BMP280;54749;47.850;9.002;2023-06-10T01:53:24;95485.22;;;15.76
67966;BMP280;54749;47.850;9.002;2023-06-10T01:55:53;95492.19;;;15.66
67966;BMP280;54749;47.850;9.002;2023-06-10T01:58:20;95489.31;;;15.61
67966;BMP280;54749;47.850;9.002;2023-06-10T02:00:47;95488.84;;;15.73
67966;BMP280;54749;47.850;9.002;2023-06-10T02:03:14;95488.72;;;15.75
67966;BMP280;54749;47.850;9.002;2023-06-10T02:05:41;95490.13;;;15.77
67966;BMP280;54749;47.850;9.002;2023-06-10T02:08:09;95484.22;;;15.69
67966;BMP280;54749;47.850;9.002;2023-06-10T02:10:36;95489.31;;;15.61
67966;BMP280;54749;47.850;9.002;2023-06-10T02:13:03;95502.06;;;15.61
67966;BMP280;54749;47.850;9.002;2023-06-10T02:15:30;95494.72;;;15.58
67966;BMP280;54749;47.850;9.002;2023-06-10T02:17:59;95498.03;;;15.51
67966;BMP280;54749;47.850;9.002;2023-06-10T02:20:26;95497.88;;;15.44
67966;BMP280;54749;47.850;9.002;2023-06-10T02:22:54;95502.63;;;15.40
67966;BMP280;54749;47.850;9.002;2023-06-10T02:25:21;95508.50;;;15.32
67966;BMP280;54749;47.850;9.002;2023-06-10T02:27:50;95510.53;;;15.29
67966;BMP280;54749;47.850;9.002;2023-06-10T02:30:17;95503.53;;;15.23
67966;BMP280;54749;47.850;9.002;2023-06-10T02:32:44;95510.50;;;15.21
67966;BMP280;54749;47.850;9.002;2023-06-10T02:35:17;95508.56;;;15.15
67966;BMP280;54749;47.850;9.002;2023-06-10T02:37:44;95514.28;;;15.09
67966;BMP280;54749;47.850;9.002;2023-06-10T02:40:11;95513.28;;;15.03
67966;BMP280;54749;47.850;9.002;2023-06-10T02:42:39;95517.72;;;14.93
67966;BMP280;54749;47.850;9.002;2023-06-10T02:45:07;95522.13;;;14.91
67966;BMP280;54749;47.850;9.002;2023-06-10T02:47:39;95521.13;;;14.84
67966;BMP280;54749;47.850;9.002;2023-06-10T02:50:08;95523.44;;;14.78
67966;BMP280;54749;47.850;9.002;2023-06-10T02:52:44;95523.91;;;14.73
67966;BMP280;54749;47.850;9.002;2023-06-10T02:55:11;95527.25;;;14.74
67966;BMP280;54749;47.850;9.002;2023-06-10T02:57:42;95519.22;;;14.86
67966;BMP280;54749;47.850;9.002;2023-06-10T03:00:10;95520.47;;;14.82
67966;BMP280;54749;47.850;9.002;2023-06-10T03:02:40;95522.50;;;14.79
67966;BMP280;54749;47.850;9.002;2023-06-10T03:05:09;95525.81;;;14.72
67966;BMP280;54749;47.850;9.002;2023-06-10T03:07:41;95527.47;;;14.63
67966;BMP280;54749;47.850;9.002;2023-06-10T03:10:08;95532.06;;;14.60
67966;BMP280;54749;47.850;9.002;2023-06-10T03:12:39;95532.69;;;14.54
67966;BMP280;54749;47.850;9.002;2023-06-10T03:15:06;95534.88;;;14.49
67966;BMP280;54749;47.850;9.002;2023-06-10T03:17:34;95530.38;;;14.43
67966;BMP280;54749;47.850;9.002;2023-06-10T03:20:02;95538.13;;;14.42
67966;BMP280;54749;47.850;9.002;2023-06-10T03:22:33;95537.88;;;14.45
67966;BMP280;54749;47.850;9.002;2023-06-10T03:25:05;95539.25;;;14.39
67966;BMP280;54749;47.850;9.002;2023-06-10T03:27:34;95543.44;;;14.48
67966;BMP280;54749;47.850;9.002;2023-06-10T03:30:06;95534.22;;;14.47
67966;BMP280;54749;47.850;9.002;2023-06-10T03:32:34;95546.13;;;14.47
67966;BMP280;54749;47.850;9.002;2023-06-10T03:35:04;95546.00;;;14.48
67966;BMP280;54749;47.850;9.002;2023-06-10T03:37:33;95538.38;;;14.48
67966;BMP280;54749;47.850;9.002;2023-06-10T03:40:01;95543.75;;;14.45
67966;BMP280;54749;47.850;9.002;2023-06-10T03:42:31;95541.22;;;14.45
67966;BMP280;54749;47.850;9.002;2023-06-10T03:44:58;95553.03;;;14.54
67966;BMP280;54749;47.850;9.002;2023-06-10T03:47:33;95553.44;;;14.67
67966;BMP280;54749;47.850;9.002;2023-06-10T03:50:04;95552.81;;;14.72
67966;BMP280;54749;47.850;9.002;2023-06-10T03:52:32;95566.69;;;14.78
67966;BMP280;54749;47.850;9.002;2023-06-10T03:54:59;95556.56;;;14.86
67966;BMP280;54749;47.850;9.002;2023-06-10T03:57:27;95553.03;;;14.96
67966;BMP280;54749;47.850;9.002;2023-06-10T03:59:54;95558.81;;;15.06
67966;BMP280;54749;47.850;9.002;2023-06-10T04:02:23;95556.94;;;15.15
67966;BMP280;54749;47.850;9.002;2023-06-10T04:04:50;95553.47;;;15.24
67966;BMP280;54749;47.850;9.002;2023-06-10T04:07:19;95557.19;;;15.37
67966;BMP280;54749;47.850;9.002;2023-06-10T04:09:47;95555.16;;;15.41
67966;BMP280;54749;47.850;9.002;2023-06-10T04:12:14;95554.72;;;15.53
67966;BMP280;54749;47.850;9.002;2023-06-10T04:14:41;95546.31;;;15.68
67966;BMP280;54749;47.850;9.002;2023-06-10T04:17:11;95549.44;;;15.95
67966;BMP280;54749;47.850;9.002;2023-06-10T04:19:38;95549.00;;;16.84
67966;BMP280;54749;47.850;9.002;2023-06-10T04:22:06;95545.03;;;18.10
67966;BMP280;54749;47.850;9.002;2023-06-10T04:24:34;95541.28;;;18.86
67966;BMP280;54749;47.850;9.002;2023-06-10T04:27:03;95544.75;;;19.21
67966;BMP280;54749;47.850;9.002;2023-06-10T04:29:30;95538.66;;;19.64
67966;BMP280;54749;47.850;9.002;2023-06-10T04:31:57;95533.56;;;20.19
67966;BMP280;54749;47.850;9.002;2023-06-10T04:34:25;95539.41;;;20.13
67966;BMP280;54749;47.850;9.002;2023-06-10T04:36:53;95542.63;;;20.15
67966;BMP280;54749;47.850;9.002;2023-06-10T04:39:20;95537.25;;;20.31
67966;BMP280;54749;47.850;9.002;2023-06-10T04:41:48;95538.94;;;20.58
67966;BMP280;54749;47.850;9.002;2023-06-10T04:44:15;95538.94;;;21.39
67966;BMP280;54749;47.850;9.002;2023-06-10T04:46:43;95536.09;;;21.94
67966;BMP280;54749;47.850;9.002;2023-06-10T04:49:11;95529.66;;;22.35
67966;BMP280;54749;47.850;9.002;2023-06-10T04:51:38;95530.16;;;22.77
67966;BMP280;54749;47.850;9.002;2023-06-10T04:54:06;95539.28;;;22.98
67966;BMP280;54749;47.850;9.002;2023-06-10T04:56:33;95524.00;;;22.97
67966;BMP280;54749;47.850;9.002;2023-06-10T04:59:00;95524.38;;;23.25
67966;BMP280;54749;47.850;9.002;2023-06-10T05:01:28;95525.97;;;23.26
67966;BMP280;54749;47.850;9.002;2023-06-10T05:03:55;95529.72;;;23.17
67966;BMP280;54749;47.850;9.002;2023-06-10T05:06:23;95530.19;;;23.83
67966;BMP280;54749;47.850;9.002;2023-06-10T05:08:49;95527.16;;;24.35
67966;BMP280;54749;47.850;9.002;2023-06-10T05:11:17;95529.66;;;24.84
67966;BMP280;54749;47.850;9.002;2023-06-10T05:13:44;95531.19;;;24.67
67966;BMP280;54749;47.850;9.002;2023-06-10T05:16:11;95533.50;;;24.75
67966;BMP280;54749;47.850;9.002;2023-06-10T05:18:38;95534.59;;;24.61
67966;BMP280;54749;47.850;9.002;2023-06-10T05:21:06;95530.72;;;25.00
67966;BMP280;54749;47.850;9.002;2023-06-10T05:23:34;95537.72;;;25.76
67966;BMP280;54749;47.850;9.002;2023-06-10T05:26:01;95524.63;;;26.24
67966;BMP280;54749;47.850;9.002;2023-06-10T05:28:29;95537.44;;;26.65
67966;BMP280;54749;47.850;9.002;2023-06-10T05:30:56;95533.25;;;27.15
67966;BMP280;54749;47.850;9.002;2023-06-10T05:33:23;95535.50;;;27.45
67966;BMP280;54749;47.850;9.002;2023-06-10T05:35:51;95524.19;;;27.96
67966;BMP280;54749;47.850;9.002;2023-06-10T05:38:18;95535.09;;;28.20
67966;BMP280;54749;47.850;9.002;2023-06-10T05:40:46;95521.34;;;28.09
67966;BMP280;54749;47.850;9.002;2023-06-10T05:43:13;95530.72;;;28.48
67966;BMP280;54749;47.850;9.002;2023-06-10T05:45:41;95540.25;;;28.31
67966;BMP280;54749;47.850;9.002;2023-06-10T05:48:08;95534.88;;;28.49
67966;BMP280;54749;47.850;9.002;2023-06-10T05:50:35;95540.13;;;28.65
67966;BMP280;54749;47.850;9.002;2023-06-10T05:53:05;95541.84;;;29.19
67966;BMP280;54749;47.850;9.002;2023-06-10T05:55:34;95553.06;;;29.19
67966;BMP280;54749;47.850;9.002;2023-06-10T05:58:01;95545.19;;;29.47
67966;BMP280;54749;47.850;9.002;2023-06-10T06:00:28;95546.56;;;29.70
67966;BMP280;54749;47.850;9.002;2023-06-10T06:02:55;95549.53;;;29.94
67966;BMP280;54749;47.850;9.002;2023-06-10T06:05:25;95546.28;;;29.51
67966;BMP280;54749;47.850;9.002;2023-06-10T06:07:52;95545.06;;;29.90
67966;BMP280;54749;47.850;9.002;2023-06-10T06:10:19;95548.53;;;30.16
67966;BMP280;54749;47.850;9.002;2023-06-10T06:12:46;95540.50;;;30.43
67966;BMP280;54749;47.850;9.002;2023-06-10T06:15:14;95548.53;;;30.37
67966;BMP280;54749;47.850;9.002;2023-06-10T06:17:40;95547.66;;;30.99
67966;BMP280;54749;47.850;9.002;2023-06-10T06:20:08;95538.25;;;31.65
67966;BMP280;54749;47.850;9.002;2023-06-10T06:22:35;95533.88;;;31.39
67966;BMP280;54749;47.850;9.002;2023-06-10T06:25:03;95538.91;;;31.46
67966;BMP280;54749;47.850;9.002;2023-06-10T06:27:31;95544.53;;;31.02
67966;BMP280;54749;47.850;9.002;2023-06-10T06:29:58;95542.91;;;30.71
67966;BMP280;54749;47.850;9.002;2023-06-10T06:32:26;95538.22;;;31.60
67966;BMP280;54749;47.850;9.002;2023-06-10T06:34:54;95550.66;;;30.87
67966;BMP280;54749;47.850;9.002;2023-06-10T06:37:22;95546.28;;;30.24
67966;BMP280;54749;47.850;9.002;2023-06-10T06:39:57;95560.56;;;30.01
67966;BMP280;54749;47.850;9.002;2023-06-10T06:42:28;95541.91;;;30.51
67966;BMP280;54749;47.850;9.002;2023-06-10T06:45:03;95551.00;;;30.74
67966;BMP280;54749;47.850;9.002;2023-06-10T06:47:30;95549.63;;;30.20
67966;BMP280;54749;47.850;9.002;2023-06-10T06:49:58;95548.78;;;30.61
67966;BMP280;54749;47.850;9.002;2023-06-10T06:52:25;95549.47;;;31.30
67966;BMP280;54749;47.850;9.002;2023-06-10T06:54:52;95554.53;;;31.10
67966;BMP280;54749;47.850;9.002;2023-06-10T06:57:19;95544.03;;;31.05
67966;BMP280;54749;47.850;9.002;2023-06-10T06:59:46;95539.38;;;30.56
67966;BMP280;54749;47.850;9.002;2023-06-10T07:02:13;95548.00;;;31.08
67966;BMP280;54749;47.850;9.002;2023-06-10T07:04:41;95536.47;;;32.20
67966;BMP280;54749;47.850;9.002;2023-06-10T07:07:08;95527.78;;;32.79
67966;BMP280;54749;47.850;9.002;2023-06-10T07:09:39;95526.66;;;32.56
67966;BMP280;54749;47.850;9.002;2023-06-10T07:12:06;95526.97;;;32.79
67966;BMP280;54749;47.850;9.002;2023-06-10T07:14:34;95531.50;;;33.51
67966;BMP280;54749;47.850;9.002;2023-06-10T07:17:02;95526.63;;;34.21
67966;BMP280;54749;47.850;9.002;2023-06-10T07:19:29;95521.63;;;34.25
67966;BMP280;54749;47.850;9.002;2023-06-10T07:21:57;95513.97;;;35.55
67966;BMP280;54749;47.850;9.002;2023-06-10T07:24:24;95517.25;;;36.21
67966;BMP280;54749;47.850;9.002;2023-06-10T07:26:51;95507.06;;;36.55
67966;BMP280;54749;47.850;9.002;2023-06-10T07:29:19;95507.31;;;36.95
67966;BMP280;54749;47.850;9.002;2023-06-10T07:31:46;95506.56;;;37.43
67966;BMP280;54749;47.850;9.002;2023-06-10T07:34:13;95505.03;;;37.69
67966;BMP280;54749;47.850;9.002;2023-06-10T07:36:40;95510.47;;;37.90
67966;BMP280;54749;47.850;9.002;2023-06-10T07:39:07;95506.94;;;37.50
67966;BMP280;54749;47.850;9.002;2023-06-10T07:41:35;95510.13;;;37.65
67966;BMP280;54749;47.850;9.002;2023-06-10T07:44:02;95507.47;;;37.52
67966;BMP280;54749;47.850;9.002;2023-06-10T07:46:30;95507.84;;;38.16
67966;BMP280;54749;47.850;9.002;2023-06-10T07:48:57;95496.22;;;38.91
67966;BMP280;54749;47.850;9.002;2023-06-10T07:51:25;95489.28;;;39.16
67966;BMP280;54749;47.850;9.002;2023-06-10T07:53:52;95492.25;;;39.66
67966;BMP280;54749;47.850;9.002;2023-06-10T07:56:19;95493.84;;;39.97
67966;BMP280;54749;47.850;9.002;2023-06-10T07:58:48;95503.72;;;38.63
67966;BMP280;54749;47.850;9.002;2023-06-10T08:01:15;95503.34;;;38.56
67966;BMP280;54749;47.850;9.002;2023-06-10T08:03:43;95498.47;;;38.84
67966;BMP280;54749;47.850;9.002;2023-06-10T08:06:10;95503.34;;;38.56
67966;BMP280;54749;47.850;9.002;2023-06-10T08:08:38;95502.97;;;39.40
67966;BMP280;54749;47.850;9.002;2023-06-10T08:11:13;95500.97;;;38.68
67966;BMP280;54749;47.850;9.002;2023-06-10T08:13:41;95512.69;;;39.44
67966;BMP280;54749;47.850;9.002;2023-06-10T08:16:08;95509.13;;;38.93
67966;BMP280;54749;47.850;9.002;2023-06-10T08:18:37;95514.09;;;38.73
67966;BMP280;54749;47.850;9.002;2023-06-10T08:21:04;95526.31;;;38.03
67966;BMP280;54749;47.850;9.002;2023-06-10T08:23:31;95520.16;;;37.81
67966;BMP280;54749;47.850;9.002;2023-06-10T08:25:58;95511.75;;;38.45
67966;BMP280;54749;47.850;9.002;2023-06-10T08:28:26;95509.78;;;38.76
67966;BMP280;54749;47.850;9.002;2023-06-10T08:30:53;95520.28;;;37.71
67966;BMP280;54749;47.850;9.002;2023-06-10T08:33:23;95522.69;;;37.86
67966;BMP280;54749;47.850;9.002;2023-06-10T08:35:50;95523.91;;;37.13
67966;BMP280;54749;47.850;9.002;2023-06-10T08:38:17;95514.41;;;37.30
67966;BMP280;54749;47.850;9.002;2023-06-10T08:40:44;95518.97;;;36.89
67966;BMP280;54749;47.850;9.002;2023-06-10T08:43:37;95516.84;;;36.32
67966;BMP280;54749;47.850;9.002;2023-06-10T08:46:07;95515.56;;;37.06
67966;BMP280;54749;47.850;9.002;2023-06-10T08:48:43;95517.78;;;36.99
67966;BMP280;54749;47.850;9.002;2023-06-10T08:51:11;95509.00;;;37.22
67966;BMP280;54749;47.850;9.002;2023-06-10T08:53:49;95515.09;;;37.35
67966;BMP280;54749;47.850;9.002;2023-06-10T08:56:17;95510.34;;;37.37
67966;BMP280;54749;47.850;9.002;2023-06-10T08:58:45;95503.75;;;38.37
67966;BMP280;54749;47.850;9.002;2023-06-10T09:01:12;95514.28;;;37.84
67966;BMP280;54749;47.850;9.002;2023-06-10T09:03:41;95514.88;;;37.50
67966;BMP280;54749;47.850;9.002;2023-06-10T09:06:08;95517.56;;;36.78
67966;BMP280;54749;47.850;9.002;2023-06-10T09:08:37;95503.75;;;38.37
67966;BMP280;54749;47.850;9.002;2023-06-10T09:11:05;95499.94;;;38.90
67966;BMP280;54749;47.850;9.002;2023-06-10T09:13:32;95503.41;;;38.77
67966;BMP280;54749;47.850;9.002;2023-06-10T09:15:59;95496.50;;;38.42
67966;BMP280;54749;47.850;9.002;2023-06-10T09:18:29;95503.38;;;38.30
67966;BMP280;54749;47.850;9.002;2023-06-10T09:20:57;95502.75;;;38.46
67966;BMP280;54749;47.850;9.002;2023-06-10T09:23:25;95502.72;;;39.71
67966;BMP280;54749;47.850;9.002;2023-06-10T09:25:57;95497.00;;;39.47
67966;BMP280;54749;47.850;9.002;2023-06-10T09:28:27;95509.28;;;37.38
67966;BMP280;54749;47.850;9.002;2023-06-10T09:31:04;95501.38;;;37.83
67966;BMP280;54749;47.850;9.002;2023-06-10T09:33:37;95490.22;;;38.99
67966;BMP280;54749;47.850;9.002;2023-06-10T09:36:05;95488.63;;;39.54
67966;BMP280;54749;47.850;9.002;2023-06-10T09:38:34;95495.88;;;38.71
67966;BMP280;54749;47.850;9.002;2023-06-10T09:41:02;95497.00;;;39.47
67966;BMP280;54749;47.850;9.002;2023-06-10T09:43:40;95489.53;;;39.49
67966;BMP280;54749;47.850;9.002;2023-06-10T09:46:18;95503.25;;;39.51
67966;BMP280;54749;47.850;9.002;2023-06-10T09:48:47;95502.81;;;38.80
67966;BMP280;54749;47.850;9.002;2023-06-10T09:51:15;95502.00;;;39.36
67966;BMP280;54749;47.850;9.002;2023-06-10T09:53:53;95487.53;;;40.22
67966;BMP280;54749;47.850;9.002;2023-06-10T09:56:20;95491.78;;;40.23
67966;BMP280;54749;47.850;9.002;2023-06-10T09:58:49;95472.88;;;40.63
67966;BMP280;54749;47.850;9.002;2023-06-10T10:01:19;95469.78;;;40.69
67966;BMP280;54749;47.850;9.002;2023-06-10T10:03:50;95476.94;;;40.93
67966;BMP280;54749;47.850;9.002;2023-06-10T10:06:18;95487.88;;;39.83
67966;BMP280;54749;47.850;9.002;2023-06-10T10:08:48;95492.00;;;38.16
67966;BMP280;54749;47.850;9.002;2023-06-10T10:11:20;95498.16;;;38.38
67966;BMP280;54749;47.850;9.002;2023-06-10T10:13:52;95483.94;;;38.74
67966;BMP280;54749;47.850;9.002;2023-06-10T10:16:21;95501.28;;;36.35
67966;BMP280;54749;47.850;9.002;2023-06-10T10:18:53;95509.19;;;34.54
67966;BMP280;54749;47.850;9.002;2023-06-10T10:21:27;95490.75;;;36.71
67966;BMP280;54749;47.850;9.002;2023-06-10T10:24:08;95487.03;;;36.95
67966;BMP280;54749;47.850;9.002;2023-06-10T10:26:38;95487.06;;;37.08
67966;BMP280;54749;47.850;9.002;2023-06-10T10:29:10;95473.19;;;38.57
67966;BMP280;54749;47.850;9.002;2023-06-10T10:31:42;95462.66;;;39.85
67966;BMP280;54749;47.850;9.002;2023-06-10T10:34:16;95470.09;;;39.83
67966;BMP280;54749;47.850;9.002;2023-06-10T10:36:46;95461.44;;;40.54
67966;BMP280;54749;47.850;9.002;2023-06-10T10:39:13;95465.84;;;40.67
67966;BMP280;54749;47.850;9.002;2023-06-10T10:41:41;95488.69;;;39.19
67966;BMP280;54749;47.850;9.002;2023-06-10T10:44:09;95496.19;;;36.98
67966;BMP280;54749;47.850;9.002;2023-06-10T10:46:45;95490.09;;;36.43
67966;BMP280;54749;47.850;9.002;2023-06-10T10:49:16;95482.22;;;37.90
67966;BMP280;54749;47.850;9.002;2023-06-10T10:51:58;95475.63;;;38.67
67966;BMP280;54749;47.850;9.002;2023-06-10T10:54:33;95465.72;;;38.72
67966;BMP280;54749;47.850;9.002;2023-06-10T10:57:17;95466.53;;;38.46
67966;BMP280;54749;47.850;9.002;2023-06-10T10:59:58;95481.44;;;36.61
67966;BMP280;54749;47.850;9.002;2023-06-10T11:02:36;95479.66;;;35.92
67966;BMP280;54749;47.850;9.002;2023-06-10T11:05:08;95475.53;;;36.10
67966;BMP280;54749;47.850;9.002;2023-06-10T11:07:37;95486.28;;;35.67
67966;BMP280;54749;47.850;9.002;2023-06-10T11:10:12;95464.31;;;35.21
67966;BMP280;54749;47.850;9.002;2023-06-10T11:15:13;95491.69;;;33.10
67966;BMP280;54749;47.850;9.002;2023-06-10T11:18:33;95482.25;;;33.05
67966;BMP280;54749;47.850;9.002;2023-06-10T11:21:05;95476.16;;;32.65
67966;BMP280;54749;47.850;9.002;2023-06-10T11:23:41;95469.50;;;32.19
67966;BMP280;54749;47.850;9.002;2023-06-10T11:26:10;95478.19;;;31.79
67966;BMP280;54749;47.850;9.002;2023-06-10T11:29:01;95482.16;;;31.86
67966;BMP280;54749;47.850;9.002;2023-06-10T11:31:33;95487.06;;;30.97
67966;BMP280;54749;47.850;9.002;2023-06-10T11:34:03;95498.00;;;29.43
67966;BMP280;54749;47.850;9.002;2023-06-10T11:36:33;95495.84;;;29.56
67966;BMP280;54749;47.850;9.002;2023-06-10T11:39:03;95487.34;;;29.82
67966;BMP280;54749;47.850;9.002;2023-06-10T11:41:31;95477.94;;;30.48
67966;BMP280;54749;47.850;9.002;2023-06-10T11:44:17;95479.41;;;30.60
67966;BMP280;54749;47.850;9.002;2023-06-10T11:46:48;95485.75;;;30.74
67966;BMP280;54749;47.850;9.002;2023-06-10T11:49:15;95485.75;;;30.74
67966;BMP280;54749;47.850;9.002;2023-06-10T11:51:43;95479.06;;;30.83
67966;BMP280;54749;47.850;9.002;2023-06-10T11:54:17;95479.06;;;30.83
67966;BMP280;54749;47.850;9.002;2023-06-10T11:56:46;95494.75;;;29.20
67966;BMP280;54749;47.850;9.002;2023-06-10T11:59:13;95489.09;;;29.07
67966;BMP280;54749;47.850;9.002;2023-06-10T12:01:44;95487.25;;;29.40
67966;BMP280;54749;47.850;9.002;2023-06-10T12:04:14;95485.06;;;29.00
67966;BMP280;54749;47.850;9.002;2023-06-10T12:06:50;95476.94;;;29.82
67966;BMP280;54749;47.850;9.002;2023-06-10T12:09:29;95463.75;;;30.65
67966;BMP280;54749;47.850;9.002;2023-06-10T12:12:00;95470.41;;;30.77
67966;BMP280;54749;47.850;9.002;2023-06-10T12:14:50;95474.91;;;30.09
67966;BMP280;54749;47.850;9.002;2023-06-10T12:17:35;95489.78;;;29.51
67966;BMP280;54749;47.850;9.002;2023-06-10T12:20:08;95484.28;;;29.16
67966;BMP280;54749;47.850;9.002;2023-06-10T12:22:39;95481.25;;;29.23
67966;BMP280;54749;47.850;9.002;2023-06-10T12:25:08;95473.41;;;29.55
67966;BMP280;54749;47.850;9.002;2023-06-10T12:27:37;95459.09;;;29.95
67966;BMP280;54749;47.850;9.002;2023-06-10T12:30:05;95457.59;;;30.24
67966;BMP280;54749;47.850;9.002;2023-06-10T12:32:44;95450.56;;;30.25
67966;BMP280;54749;47.850;9.002;2023-06-10T12:35:16;95466.88;;;30.62
67966;BMP280;54749;47.850;9.002;2023-06-10T12:40:30;95452.53;;;29.92
67966;BMP280;54749;47.850;9.002;2023-06-10T12:43:02;95464.03;;;29.75
67966;BMP280;54749;47.850;9.002;2023-06-10T12:45:33;95455.03;;;30.04
67966;BMP280;54749;47.850;9.002;2023-06-10T12:48:11;95461.28;;;29.82
67966;BMP280;54749;47.850;9.002;2023-06-10T12:50:41;95453.19;;;29.62
67966;BMP280;54749;47.850;9.002;2023-06-10T12:53:09;95458.88;;;29.80
67966;BMP280;54749;47.850;9.002;2023-06-10T12:55:37;95448.53;;;30.06
67966;BMP280;54749;47.850;9.002;2023-06-10T12:58:04;95441.94;;;30.24
67966;BMP280;54749;47.850;9.002;2023-06-10T13:00:31;95453.13;;;29.78
67966;BMP280;54749;47.850;9.002;2023-06-10T13:03:02;95461.56;;;29.11
67966;BMP280;54749;47.850;9.002;2023-06-10T13:05:33;95466.00;;;28.79
67966;BMP280;54749;47.850;9.002;2023-06-10T13:08:00;95450.38;;;28.79
67966;BMP280;54749;47.850;9.002;2023-06-10T13:10:28;95454.28;;;28.97
67966;BMP280;54749;47.850;9.002;2023-06-10T13:12:55;95450.53;;;29.04
67966;BMP280;54749;47.850;9.002;2023-06-10T13:15:22;95442.88;;;28.98
67966;BMP280;54749;47.850;9.002;2023-06-10T13:17:49;95445.16;;;28.95
67966;BMP280;54749;47.850;9.002;2023-06-10T13:20:19;95446.91;;;28.89
67966;BMP280;54749;47.850;9.002;2023-06-10T13:22:46;95444.22;;;28.84
67966;BMP280;54749;47.850;9.002;2023-06-10T13:25:15;95429.53;;;29.11
67966;BMP280;54749;47.850;9.002;2023-06-10T13:27:42;95441.53;;;28.96
67966;BMP280;54749;47.850;9.002;2023-06-10T13:30:10;95442.91;;;28.55
67966;BMP280;54749;47.850;9.002;2023-06-10T13:32:38;95434.09;;;28.72
67966;BMP280;54749;47.850;9.002;2023-06-10T13:35:06;95442.03;;;28.33
67966;BMP280;54749;47.850;9.002;2023-06-10T13:37:35;95443.84;;;28.33
67966;BMP280;54749;47.850;9.002;2023-06-10T13:40:02;95440.59;;;28.26
67966;BMP280;54749;47.850;9.002;2023-06-10T13:42:30;95432.56;;;28.28
67966;BMP280;54749;47.850;9.002;2023-06-10T13:44:57;95425.41;;;28.34
67966;BMP280;54749;47.850;9.002;2023-06-10T13:47:24;95427.59;;;28.26
67966;BMP280;54749;47.850;9.002;2023-06-10T13:49:53;95428.53;;;28.20
67966;BMP280;54749;47.850;9.002;2023-06-10T13:52:20;95431.31;;;28.46
67966;BMP280;54749;47.850;9.002;2023-06-10T13:54:47;95419.72;;;28.53
67966;BMP280;54749;47.850;9.002;2023-06-10T13:57:14;95422.09;;;28.39
67966;BMP280;54749;47.850;9.002;2023-06-10T13:59:41;95421.38;;;28.00
67966;BMP280;54749;47.850;9.002;2023-06-10T14:02:08;95421.72;;;27.65
67966;BMP280;54749;47.850;9.002;2023-06-10T14:04:36;95418.50;;;27.36
67966;BMP280;54749;47.850;9.002;2023-06-10T14:07:03;95423.84;;;27.57
67966;BMP280;54749;47.850;9.002;2023-06-10T14:09:31;95413.09;;;27.76
67966;BMP280;54749;47.850;9.002;2023-06-10T14:11:58;95411.56;;;27.91
67966;BMP280;54749;47.850;9.002;2023-06-10T14:14:25;95405.31;;;28.03
67966;BMP280;54749;47.850;9.002;2023-06-10T14:16:52;95417.75;;;28.01
67966;BMP280;54749;47.850;9.002;2023-06-10T14:19:20;95410.16;;;27.83
67966;BMP280;54749;47.850;9.002;2023-06-10T14:21:47;95394.56;;;27.83
67966;BMP280;54749;47.850;9.002;2023-06-10T14:24:16;95393.69;;;27.94
67966;BMP280;54749;47.850;9.002;2023-06-10T14:26:43;95388.56;;;27.83
67966;BMP280;54749;47.850;9.002;2023-06-10T14:29:11;95393.50;;;27.57